createdAt,value
2018-08-16T00:01:11.101Z,15.30
2018-08-16T00:03:39.220Z,15.07
2018-08-16T00:06:07.891Z,13.53
2018-08-16T00:08:36.547Z,15.70
2018-08-16T00:11:05.464Z,13.30
2018-08-16T00:13:33.932Z,15.70
2018-08-16T00:16:02.578Z,14.63
2018-08-16T00:18:31.052Z,14.20
2018-08-16T00:20:59.516Z,13.97
2018-08-16T00:23:28.015Z,14.20
2018-08-16T00:25:56.461Z,13.90
2018-08-16T00:28:24.848Z,12.93
2018-08-16T00:30:53.287Z,14.70
2018-08-16T00:33:21.768Z,13.70
2018-08-16T00:35:49.888Z,13.17
2018-08-16T00:38:18.353Z,13.40
2018-08-16T00:40:46.680Z,13.30
2018-08-16T00:43:15.029Z,13.67
2018-08-16T00:45:43.336Z,13.13
2018-08-16T00:48:11.477Z,13.00
2018-08-16T00:50:39.935Z,13.57
2018-08-16T00:53:08.736Z,13.60
2018-08-16T00:55:36.839Z,12.93
2018-08-16T00:58:05.291Z,12.50
2018-08-16T01:00:33.396Z,12.97
2018-08-16T01:03:01.860Z,13.63
2018-08-16T01:05:30.313Z,13.80
2018-08-16T01:07:58.444Z,13.83
2018-08-16T01:10:26.573Z,14.00
2018-08-16T01:12:54.711Z,11.50
2018-08-16T01:15:23.399Z,12.00
2018-08-16T01:17:52.081Z,11.50
2018-08-16T01:20:20.459Z,12.00
2018-08-16T01:22:48.744Z,12.37
2018-08-16T01:25:16.863Z,13.40
2018-08-16T01:27:44.980Z,12.10
2018-08-16T01:30:13.449Z,11.90
2018-08-16T01:32:41.604Z,13.20
2018-08-16T01:35:10.378Z,12.33
2018-08-16T01:37:39.136Z,12.47
2018-08-16T01:40:07.988Z,11.93
2018-08-16T01:42:36.493Z,12.20
2018-08-16T01:45:05.080Z,12.10
2018-08-16T01:47:33.214Z,12.60
2018-08-16T01:50:01.613Z,11.90
2018-08-16T01:52:29.741Z,12.40
2018-08-16T01:54:57.856Z,12.60
2018-08-16T01:57:25.993Z,11.80
2018-08-16T01:59:54.441Z,12.17
2018-08-16T02:02:22.607Z,10.80
2018-08-16T02:04:50.725Z,11.97
2018-08-16T02:07:19.291Z,11.60
2018-08-16T02:09:47.648Z,12.10
2018-08-16T02:12:15.799Z,12.97
2018-08-16T02:14:44.237Z,11.17
2018-08-16T02:17:12.369Z,12.00
2018-08-16T02:19:40.824Z,12.00
2018-08-16T02:22:09.286Z,11.87
2018-08-16T02:24:37.676Z,12.80
2018-08-16T02:27:05.891Z,12.13
2018-08-16T02:29:34.571Z,12.50
2018-08-16T02:32:02.709Z,11.43
2018-08-16T02:34:31.434Z,12.40
2018-08-16T02:36:59.558Z,11.70
2018-08-16T02:39:28.192Z,12.20
2018-08-16T02:41:56.667Z,12.17
2018-08-16T02:44:25.137Z,12.20
2018-08-16T02:46:53.815Z,11.77
2018-08-16T02:49:22.257Z,12.63
2018-08-16T02:51:50.754Z,11.83
2018-08-16T02:54:19.215Z,13.23
2018-08-16T02:56:47.668Z,12.07
2018-08-16T02:59:15.793Z,12.70
2018-08-16T03:01:44.310Z,11.43
2018-08-16T03:04:12.752Z,14.07
2018-08-16T03:06:41.223Z,12.80
2018-08-16T03:09:10.392Z,12.13
2018-08-16T03:11:38.560Z,12.70
2018-08-16T03:14:07.085Z,12.17
2018-08-16T03:16:35.649Z,12.90
2018-08-16T03:19:03.897Z,13.33
2018-08-16T03:21:32.600Z,11.90
2018-08-16T03:24:00.713Z,13.13
2018-08-16T03:26:29.453Z,11.97
2018-08-16T03:28:57.896Z,13.30
2018-08-16T03:31:26.044Z,11.50
2018-08-16T03:33:54.423Z,12.63
2018-08-16T03:36:23.012Z,11.43
2018-08-16T03:38:51.687Z,13.13
2018-08-16T03:41:20.344Z,14.10
2018-08-16T03:43:48.469Z,13.60
2018-08-16T03:46:16.968Z,12.97
2018-08-16T03:48:45.090Z,13.20
2018-08-16T03:51:13.230Z,11.60
2018-08-16T03:53:41.929Z,13.70
2018-08-16T03:56:10.724Z,13.53
2018-08-16T03:58:39.181Z,13.70
2018-08-16T04:01:08.109Z,13.23
2018-08-16T04:03:36.368Z,13.20
2018-08-16T04:06:04.654Z,13.20
2018-08-16T04:08:32.833Z,12.93
2018-08-16T04:11:00.961Z,12.43
2018-08-16T04:13:29.430Z,13.23
2018-08-16T04:15:57.781Z,12.13
2018-08-16T04:18:25.987Z,12.27
2018-08-16T04:20:54.433Z,13.87
2018-08-16T04:23:22.581Z,11.53
2018-08-16T04:25:51.029Z,11.60
2018-08-16T04:28:19.485Z,10.70
2018-08-16T04:30:47.941Z,12.17
2018-08-16T04:33:16.082Z,12.87
2018-08-16T04:35:44.761Z,12.57
2018-08-16T04:38:13.435Z,12.60
2018-08-16T04:40:41.585Z,12.90
2018-08-16T04:43:10.052Z,12.27
2018-08-16T04:45:38.194Z,12.80
2018-08-16T04:48:06.661Z,13.07
2018-08-16T04:50:34.968Z,11.40
2018-08-16T04:53:03.677Z,12.57
2018-08-16T04:55:31.827Z,11.60
2018-08-16T04:58:00.305Z,10.80
2018-08-16T05:00:28.994Z,12.27
2018-08-16T05:02:57.452Z,11.90
2018-08-16T05:05:25.567Z,11.33
2018-08-16T05:07:53.748Z,12.00
2018-08-16T05:10:22.413Z,12.53
2018-08-16T05:12:50.880Z,12.50
2018-08-16T05:15:19.008Z,10.77
2018-08-16T05:17:47.467Z,11.97
2018-08-16T05:20:15.929Z,10.73
2018-08-16T05:22:44.604Z,12.20
2018-08-16T05:25:13.180Z,11.10
2018-08-16T05:27:41.875Z,12.17
2018-08-16T05:30:11.728Z,13.13
2018-08-16T05:32:39.930Z,12.93
2018-08-16T05:35:08.175Z,12.13
2018-08-16T05:37:37.797Z,13.30
2018-08-16T05:40:16.375Z,12.97
2018-08-16T05:42:44.507Z,12.67
2018-08-16T05:45:12.816Z,13.53
2018-08-16T05:47:41.444Z,13.50
2018-08-16T05:50:11.249Z,13.20
2018-08-16T05:52:39.501Z,13.50
2018-08-16T05:55:08.412Z,13.40
2018-08-16T05:57:36.648Z,13.13
2018-08-16T06:00:07.312Z,12.60
2018-08-16T06:02:36.025Z,13.23
2018-08-16T06:05:04.807Z,12.93
2018-08-16T06:07:33.398Z,13.10
2018-08-16T06:10:01.716Z,13.13
2018-08-16T06:12:30.045Z,12.50
2018-08-16T06:14:58.200Z,12.80
2018-08-16T06:17:26.579Z,11.93
2018-08-16T06:19:55.101Z,11.70
2018-08-16T06:22:23.685Z,12.90
2018-08-16T06:24:52.024Z,13.23
2018-08-16T06:27:20.408Z,13.53
2018-08-16T06:29:48.545Z,14.47
2018-08-16T06:32:16.707Z,13.00
2018-08-16T06:34:45.069Z,13.10
2018-08-16T06:37:13.412Z,13.13
2018-08-16T06:39:41.754Z,11.07
2018-08-16T06:42:09.920Z,12.77
2018-08-16T06:44:38.380Z,12.40
2018-08-16T06:47:06.751Z,12.30
2018-08-16T06:49:35.260Z,13.13
2018-08-16T06:52:03.389Z,12.70
2018-08-16T06:54:31.857Z,13.50
2018-08-16T06:57:00.313Z,12.10
2018-08-16T06:59:28.694Z,12.77
2018-08-16T07:01:57.149Z,10.40
2018-08-16T07:04:25.478Z,12.20
2018-08-16T07:06:53.961Z,12.77
2018-08-16T07:09:22.405Z,11.80
2018-08-16T07:11:50.587Z,13.10
2018-08-16T07:14:19.229Z,13.57
2018-08-16T07:16:48.042Z,13.50
2018-08-16T07:19:16.770Z,13.80
2018-08-16T07:21:45.153Z,14.40
2018-08-16T07:24:13.824Z,14.47
2018-08-16T07:26:42.473Z,13.93
2018-08-16T07:29:10.611Z,14.80
2018-08-16T07:31:38.772Z,15.17
2018-08-16T07:34:06.961Z,13.30
2018-08-16T07:36:35.417Z,16.00
2018-08-16T07:39:05.380Z,16.23
2018-08-16T07:41:33.527Z,16.67
2018-08-16T07:44:02.428Z,18.80
2018-08-16T07:46:30.597Z,17.37
2018-08-16T07:48:59.450Z,16.23
2018-08-16T07:51:27.746Z,17.80
2018-08-16T07:53:56.248Z,16.53
2018-08-16T07:56:24.405Z,14.73
2018-08-16T07:58:52.780Z,15.40
2018-08-16T08:01:20.955Z,13.80
2018-08-16T08:03:49.604Z,15.67
2018-08-16T08:06:17.961Z,16.40
2018-08-16T08:08:46.108Z,14.03
2018-08-16T08:11:14.437Z,15.17
2018-08-16T08:13:42.808Z,13.33
2018-08-16T08:16:11.315Z,15.20
2018-08-16T08:18:39.743Z,13.30
2018-08-16T08:21:08.236Z,13.90
2018-08-16T08:23:36.372Z,14.07
2018-08-16T08:26:04.496Z,15.40
2018-08-16T08:28:32.690Z,13.00
2018-08-16T08:31:00.828Z,13.60
2018-08-16T08:33:28.969Z,15.43
2018-08-16T08:36:08.412Z,14.17
2018-08-16T08:38:36.844Z,14.53
2018-08-16T08:41:05.497Z,14.87
2018-08-16T08:43:44.912Z,16.10
2018-08-16T08:46:13.041Z,12.73
2018-08-16T08:48:41.212Z,12.60
2018-08-16T08:51:09.603Z,13.27
2018-08-16T08:54:48.659Z,12.77
2018-08-16T08:57:28.330Z,11.20
2018-08-16T08:59:56.464Z,11.43
2018-08-16T09:02:24.601Z,11.77
2018-08-16T09:04:53.071Z,10.13
2018-08-16T09:07:21.830Z,9.03
2018-08-16T09:11:12.824Z,10.70
2018-08-16T09:13:53.464Z,9.80
2018-08-16T09:16:23.118Z,10.43
2018-08-16T09:18:51.244Z,10.03
2018-08-16T09:21:19.381Z,9.40
2018-08-16T09:23:49.665Z,10.90
2018-08-16T09:26:23.527Z,9.10
2018-08-16T09:28:51.628Z,7.73
2018-08-16T09:31:32.292Z,8.13
2018-08-16T09:34:11.795Z,8.30
2018-08-16T09:36:39.949Z,8.60
2018-08-16T09:39:15.234Z,6.97
2018-08-16T09:41:43.817Z,6.37
2018-08-16T09:44:12.116Z,7.33
2018-08-16T09:46:53.720Z,7.27
2018-08-16T09:49:22.771Z,9.13
2018-08-16T09:51:51.362Z,7.20
2018-08-16T09:54:19.965Z,7.60
2018-08-16T09:56:48.357Z,6.90
2018-08-16T09:59:17.158Z,7.60
2018-08-16T10:01:45.524Z,8.20
2018-08-16T10:04:13.851Z,6.67
2018-08-16T10:06:42.658Z,5.70
2018-08-16T10:09:16.273Z,7.80
2018-08-16T10:11:45.112Z,6.03
2018-08-16T10:14:13.796Z,6.80
2018-08-16T10:16:42.536Z,4.77
2018-08-16T10:19:11.216Z,5.93
2018-08-16T10:21:39.573Z,7.23
2018-08-16T10:24:07.692Z,8.10
2018-08-16T10:26:36.625Z,8.80
2018-08-16T10:29:05.360Z,7.37
2018-08-16T10:31:33.489Z,9.77
2018-08-16T10:34:01.606Z,8.00
2018-08-16T10:36:30.229Z,8.50
2018-08-16T10:38:59.401Z,8.20
2018-08-16T10:41:28.100Z,7.23
2018-08-16T10:43:56.237Z,6.60
2018-08-16T10:46:24.645Z,8.00
2018-08-16T10:48:53.208Z,6.67
2018-08-16T10:51:21.552Z,8.17
2018-08-16T10:53:50.045Z,7.50
2018-08-16T10:56:18.496Z,7.17
2018-08-16T10:58:46.624Z,6.57
2018-08-16T11:01:15.032Z,5.70
2018-08-16T11:03:43.636Z,7.00
2018-08-16T11:06:11.997Z,7.57
2018-08-16T11:08:40.457Z,7.43
2018-08-16T11:11:08.765Z,6.73
2018-08-16T11:13:36.889Z,6.73
2018-08-16T11:16:05.028Z,7.20
2018-08-16T11:18:33.502Z,6.27
2018-08-16T11:21:01.909Z,8.50
2018-08-16T11:23:30.340Z,6.67
2018-08-16T11:25:58.521Z,5.97
2018-08-16T11:28:26.631Z,6.80
2018-08-16T11:30:55.013Z,6.47
2018-08-16T11:33:23.176Z,6.20
2018-08-16T11:35:51.826Z,5.63
2018-08-16T11:38:19.949Z,5.67
2018-08-16T11:40:48.519Z,5.20
2018-08-16T11:43:16.775Z,5.50
2018-08-16T11:45:45.413Z,6.40
2018-08-16T11:48:17.477Z,5.13
2018-08-16T11:50:45.667Z,5.63
2018-08-16T11:53:14.341Z,5.40
2018-08-16T11:55:42.810Z,5.50
2018-08-16T11:58:11.462Z,5.40
2018-08-16T12:00:39.790Z,6.20
2018-08-16T12:03:08.307Z,5.73
2018-08-16T12:05:36.436Z,5.67
2018-08-16T12:08:04.971Z,5.57
2018-08-16T12:10:33.077Z,5.43
2018-08-16T12:13:01.210Z,5.40
2018-08-16T12:15:29.896Z,6.10
2018-08-16T12:17:58.608Z,6.33
2018-08-16T12:20:27.063Z,5.03
2018-08-16T12:22:55.548Z,5.23
2018-08-16T12:25:23.905Z,4.97
2018-08-16T12:27:52.598Z,5.67
2018-08-16T12:30:21.289Z,4.50
2018-08-16T12:32:49.372Z,4.70
2018-08-16T12:35:17.782Z,5.63
2018-08-16T12:37:45.974Z,5.37
2018-08-16T12:40:14.272Z,5.67
2018-08-16T12:42:42.805Z,5.23
2018-08-16T12:45:10.945Z,4.80
2018-08-16T12:47:39.316Z,6.53
2018-08-16T12:50:08.225Z,5.40
2018-08-16T12:52:39.850Z,5.50
2018-08-16T12:55:07.978Z,4.77
2018-08-16T12:57:36.426Z,5.40
2018-08-16T13:00:07.089Z,5.27
2018-08-16T13:02:35.436Z,6.17
2018-08-16T13:05:04.251Z,4.90
2018-08-16T13:07:32.376Z,4.73
2018-08-16T13:10:00.501Z,4.33
2018-08-16T13:12:28.977Z,4.87
2018-08-16T13:14:57.250Z,4.53
2018-08-16T13:17:25.524Z,4.60
2018-08-16T13:19:53.994Z,4.53
2018-08-16T13:22:22.969Z,4.70
2018-08-16T13:24:51.121Z,5.73
2018-08-16T13:27:19.648Z,5.13
2018-08-16T13:29:47.776Z,5.20
2018-08-16T13:32:16.237Z,4.43
2018-08-16T13:34:44.723Z,4.87
2018-08-16T13:37:13.602Z,4.67
2018-08-16T13:39:41.863Z,5.20
2018-08-16T13:42:10.567Z,4.37
2018-08-16T13:44:38.908Z,5.40
2018-08-16T13:47:07.057Z,6.03
2018-08-16T13:49:35.180Z,5.10
2018-08-16T13:52:03.612Z,5.63
2018-08-16T13:54:32.349Z,5.57
2018-08-16T13:57:01.044Z,4.97
2018-08-16T13:59:29.170Z,5.37
2018-08-16T14:01:57.829Z,4.80
2018-08-16T14:04:26.497Z,4.97
2018-08-16T14:06:54.956Z,5.40
2018-08-16T14:09:23.289Z,5.60
2018-08-16T14:11:51.396Z,6.40
2018-08-16T14:14:19.517Z,6.43
2018-08-16T14:16:47.977Z,5.40
2018-08-16T14:19:16.437Z,6.00
2018-08-16T14:21:44.935Z,5.10
2018-08-16T14:24:13.368Z,5.90
2018-08-16T14:26:41.824Z,6.57
2018-08-16T14:29:10.280Z,6.17
2018-08-16T14:31:38.408Z,5.60
2018-08-16T14:34:07.070Z,5.70
2018-08-16T14:36:35.196Z,6.80
2018-08-16T14:39:03.840Z,6.20
2018-08-16T14:41:31.978Z,6.00
2018-08-16T14:44:00.412Z,5.07
2018-08-16T14:46:28.868Z,6.40
2018-08-16T14:48:56.984Z,6.13
2018-08-16T14:51:25.270Z,6.30
2018-08-16T14:53:53.844Z,6.00
2018-08-16T14:56:22.315Z,6.03
2018-08-16T14:58:50.549Z,7.07
2018-08-16T15:01:19.001Z,6.20
2018-08-16T15:03:47.131Z,6.40
2018-08-16T15:06:15.273Z,6.70
2018-08-16T15:08:43.459Z,6.90
2018-08-16T15:11:11.921Z,6.13
2018-08-16T15:13:40.500Z,6.50
2018-08-16T15:16:08.660Z,5.47
2018-08-16T15:18:36.791Z,6.10
2018-08-16T15:21:05.275Z,6.20
2018-08-16T15:23:33.740Z,6.60
2018-08-16T15:26:02.403Z,6.40
2018-08-16T15:28:30.858Z,6.13
2018-08-16T15:30:59.766Z,6.67
2018-08-16T15:33:28.469Z,5.20
2018-08-16T15:35:56.944Z,5.70
2018-08-16T15:38:25.263Z,6.23
2018-08-16T15:40:53.513Z,6.70
2018-08-16T15:43:22.097Z,6.30
2018-08-16T15:45:50.604Z,7.13
2018-08-16T15:48:18.708Z,7.13
2018-08-16T15:50:46.851Z,6.13
2018-08-16T15:53:15.576Z,5.97
2018-08-16T15:55:44.145Z,6.40
2018-08-16T15:58:12.571Z,6.33
2018-08-16T16:00:41.056Z,7.23
2018-08-16T16:03:09.416Z,6.50
2018-08-16T16:05:37.653Z,9.07
2018-08-16T16:08:05.991Z,6.77
2018-08-16T16:10:34.109Z,6.93
2018-08-16T16:13:02.365Z,7.17
2018-08-16T16:15:30.992Z,7.07
2018-08-16T16:17:59.353Z,7.80
2018-08-16T16:20:27.509Z,6.43
2018-08-16T16:22:56.228Z,7.77
2018-08-16T16:25:24.681Z,7.73
2018-08-16T16:27:52.841Z,7.10
2018-08-16T16:30:21.303Z,7.40
2018-08-16T16:32:49.791Z,6.87
2018-08-16T16:35:18.256Z,6.60
2018-08-16T16:37:46.382Z,7.10
2018-08-16T16:40:14.525Z,7.70
2018-08-16T16:42:43.012Z,7.60
2018-08-16T16:45:11.138Z,6.93
2018-08-16T16:47:39.592Z,7.90
2018-08-16T16:50:08.640Z,7.20
2018-08-16T16:52:36.782Z,7.53
2018-08-16T16:55:05.178Z,7.20
2018-08-16T16:57:33.919Z,8.13
2018-08-16T17:00:02.573Z,7.90
2018-08-16T17:02:30.720Z,6.83
2018-08-16T17:04:59.371Z,7.47
2018-08-16T17:07:27.632Z,7.13
2018-08-16T17:09:55.824Z,8.07
2018-08-16T17:12:24.460Z,7.30
2018-08-16T17:14:52.581Z,7.87
2018-08-16T17:17:21.135Z,7.30
2018-08-16T17:19:49.513Z,8.20
2018-08-16T17:22:18.175Z,8.03
2018-08-16T17:24:46.691Z,8.73
2018-08-16T17:27:15.163Z,9.80
2018-08-16T17:29:43.305Z,9.10
2018-08-16T17:32:11.951Z,10.13
2018-08-16T17:34:40.249Z,9.70
2018-08-16T17:37:08.552Z,12.40
2018-08-16T17:39:38.356Z,11.33
2018-08-16T17:42:06.814Z,12.40
2018-08-16T17:44:35.300Z,12.20
2018-08-16T17:47:03.873Z,11.90
2018-08-16T17:49:32.331Z,11.63
2018-08-16T17:54:53.169Z,12.77
2018-08-16T17:57:21.741Z,13.47
2018-08-16T17:59:49.989Z,13.13
2018-08-16T18:02:18.092Z,17.77
2018-08-16T18:04:46.814Z,13.47
2018-08-16T18:07:15.478Z,12.30
2018-08-16T18:09:43.615Z,13.63
2018-08-16T18:12:12.081Z,14.30
2018-08-16T18:14:40.673Z,12.87
2018-08-16T18:17:08.772Z,12.60
2018-08-16T18:19:37.219Z,12.77
2018-08-16T18:22:05.330Z,11.57
2018-08-16T18:24:33.489Z,11.97
2018-08-16T18:27:01.945Z,13.57
2018-08-16T18:29:30.502Z,12.57
2018-08-16T18:31:58.892Z,11.90
2018-08-16T18:34:27.355Z,12.50
2018-08-16T18:36:55.816Z,12.13
2018-08-16T18:39:24.382Z,11.70
2018-08-16T18:41:52.772Z,12.57
2018-08-16T18:44:21.236Z,12.80
2018-08-16T18:46:49.331Z,11.80
2018-08-16T18:49:17.811Z,11.87
2018-08-16T18:51:46.251Z,10.77
2018-08-16T18:54:14.948Z,10.20
2018-08-16T18:56:43.607Z,9.97
2018-08-16T18:59:12.099Z,9.77
2018-08-16T19:01:40.796Z,8.73
2018-08-16T19:04:09.449Z,8.83
2018-08-16T19:06:37.644Z,10.10
2018-08-16T19:09:07.076Z,9.00
2018-08-16T19:11:35.502Z,8.93
2018-08-16T19:14:04.263Z,8.90
2018-08-16T19:16:32.697Z,9.10
2018-08-16T19:19:01.160Z,12.60
2018-08-16T19:21:29.453Z,13.37
2018-08-16T19:23:57.589Z,17.23
2018-08-16T19:26:25.767Z,8.77
2018-08-16T19:28:54.327Z,8.00
2018-08-16T19:31:22.667Z,31.00
2018-08-16T19:33:51.156Z,28.93
2018-08-16T19:36:19.879Z,8.17
2018-08-16T19:38:48.032Z,9.17
2018-08-16T19:41:16.202Z,8.70
2018-08-16T19:43:44.783Z,10.37
2018-08-16T19:46:13.242Z,8.63
2018-08-16T19:48:42.115Z,9.10
2018-08-16T19:51:10.830Z,9.37
2018-08-16T19:53:39.259Z,8.57
2018-08-16T19:56:07.369Z,8.40
2018-08-16T19:58:37.383Z,8.87
2018-08-16T20:01:06.157Z,8.50
2018-08-16T20:03:34.750Z,8.90
2018-08-16T20:06:03.343Z,8.10
2018-08-16T20:08:32.016Z,8.03
2018-08-16T20:11:00.750Z,7.80
2018-08-16T20:13:29.181Z,7.73
2018-08-16T20:15:57.855Z,8.20
2018-08-16T20:18:26.299Z,9.83
2018-08-16T20:20:54.739Z,8.30
2018-08-16T20:23:22.829Z,9.60
2018-08-16T20:25:50.951Z,10.20
2018-08-16T20:28:19.251Z,8.00
2018-08-16T20:30:47.626Z,8.37
2018-08-16T20:33:15.779Z,10.87
2018-08-16T20:35:44.252Z,10.00
2018-08-16T20:38:12.375Z,11.37
2018-08-16T20:40:41.079Z,11.07
2018-08-16T20:43:09.902Z,10.87
2018-08-16T20:45:38.868Z,11.13
2018-08-16T20:48:07.319Z,10.10
2018-08-16T20:50:35.471Z,11.23
2018-08-16T20:53:03.862Z,12.57
2018-08-16T20:55:32.388Z,11.63
2018-08-16T20:58:00.545Z,11.90
2018-08-16T21:00:28.896Z,12.17
2018-08-16T21:02:57.534Z,9.90
2018-08-16T21:05:25.677Z,12.20
2018-08-16T21:07:53.784Z,10.23
2018-08-16T21:10:22.250Z,9.60
2018-08-16T21:12:50.370Z,10.27
2018-08-16T21:15:18.723Z,10.27
2018-08-16T21:17:47.107Z,11.10
2018-08-16T21:20:15.248Z,10.83
2018-08-16T21:22:43.745Z,10.60
2018-08-16T21:25:12.633Z,12.50
2018-08-16T21:27:41.106Z,9.90
2018-08-16T21:30:09.426Z,10.30
2018-08-16T21:32:44.480Z,10.37
2018-08-16T21:35:13.132Z,10.00
2018-08-16T21:37:41.859Z,11.20
2018-08-16T21:40:10.304Z,10.27
2018-08-16T21:42:38.767Z,10.63
2018-08-16T21:45:07.465Z,9.97
2018-08-16T21:47:35.961Z,10.60
2018-08-16T21:50:04.546Z,9.60
2018-08-16T21:52:33.253Z,10.47
2018-08-16T21:55:01.694Z,9.80
2018-08-16T21:57:30.355Z,10.17
2018-08-16T21:59:58.792Z,8.93
2018-08-16T22:02:27.245Z,9.97
2018-08-16T22:04:55.899Z,11.70
2018-08-16T22:08:08.694Z,11.00
2018-08-16T22:10:37.204Z,10.90
2018-08-16T22:13:05.995Z,10.17
2018-08-16T22:15:34.775Z,11.20
2018-08-16T22:18:03.172Z,10.17
2018-08-16T22:20:31.467Z,10.90
2018-08-16T22:22:59.883Z,11.33
2018-08-16T22:25:28.517Z,11.37
2018-08-16T22:27:56.872Z,9.77
2018-08-16T22:30:25.333Z,10.20
2018-08-16T22:32:53.793Z,11.00
2018-08-16T22:35:22.491Z,9.97
2018-08-16T22:37:50.595Z,10.90
2018-08-16T22:40:19.216Z,11.90
2018-08-16T22:42:47.960Z,12.30
2018-08-16T22:45:16.396Z,10.77
2018-08-16T22:47:44.519Z,11.53
2018-08-16T22:50:12.992Z,13.13
2018-08-16T22:52:41.356Z,11.60
2018-08-16T22:55:09.687Z,11.53
2018-08-16T22:57:38.035Z,12.40
2018-08-16T23:00:07.159Z,11.10
2018-08-16T23:02:35.786Z,11.83
2018-08-16T23:05:03.932Z,11.60
2018-08-16T23:07:32.556Z,14.07
2018-08-16T23:10:01.000Z,14.77
2018-08-16T23:12:29.466Z,13.80
2018-08-16T23:14:57.959Z,13.20
2018-08-16T23:17:26.088Z,13.70
2018-08-16T23:19:54.195Z,14.53
2018-08-16T23:22:22.331Z,13.27
2018-08-16T23:24:50.431Z,13.97
2018-08-16T23:27:18.901Z,13.67
2018-08-16T23:29:47.545Z,14.97
2018-08-16T23:32:16.223Z,12.97
2018-08-16T23:34:44.676Z,15.10
2018-08-16T23:37:13.371Z,15.00
2018-08-16T23:39:42.063Z,12.37
2018-08-16T23:42:10.533Z,14.50
2018-08-16T23:44:38.650Z,14.00
2018-08-16T23:47:06.768Z,15.13
2018-08-16T23:49:35.411Z,14.67
2018-08-16T23:52:03.517Z,11.90
2018-08-16T23:54:31.966Z,13.93
2018-08-16T23:57:00.060Z,12.80
2018-08-16T23:59:28.392Z,13.20
